Time;durP1;ratioP1;P1;durP2;ratioP2;P2;SDS_P1;SDS_P2;PMS_P1;PMS_P2;Temp;Humidity;BMP_temperature;BMP_pressure;BME280_temperature;BME280_humidity;BME280_pressure;Samples;Min_cycle;Max_cycle;Signal;HPM_P1;HPM_P2
2022/04/09 00:01:33;;;;;;;1.17;0.10;;;15.50;38.60;;;;;;6129156;23;20386;-77
2022/04/09 00:04:00;;;;;;;0.82;0.10;;;15.50;39.30;;;;;;6128669;23;20381;-81
2022/04/09 00:06:27;;;;;;;0.57;0.10;;;15.40;39.10;;;;;;6127017;23;20394;-81
2022/04/09 00:08:54;;;;;;;1.35;0.10;;;15.40;38.90;;;;;;6128816;23;20429;-80
2022/04/09 00:11:21;;;;;;;1.10;0.20;;;15.50;38.50;;;;;;6128285;23;20510;-80
2022/04/09 00:13:48;;;;;;;0.70;0.10;;;15.60;38.20;;;;;;6127507;23;20750;-80
2022/04/09 00:16:15;;;;;;;0.80;0.20;;;15.60;37.90;;;;;;6127697;23;20373;-80
2022/04/09 00:18:43;;;;;;;1.63;0.30;;;15.70;38.40;;;;;;6129354;23;20762;-81
2022/04/09 00:21:11;;;;;;;0.87;0.10;;;15.70;37.60;;;;;;6127953;23;20475;-79
2022/04/09 00:23:38;;;;;;;1.33;0.47;;;15.80;37.30;;;;;;6128617;23;20386;-81
2022/04/09 00:26:05;;;;;;;0.35;0.13;;;15.80;36.90;;;;;;6126356;23;20846;-80
2022/04/09 00:28:31;;;;;;;0.90;0.10;;;15.90;36.80;;;;;;6127851;23;20835;-79
2022/04/09 00:30:58;;;;;;;1.38;0.10;;;15.80;37.20;;;;;;6125887;23;20383;-77
2022/04/09 00:33:25;;;;;;;0.70;0.10;;;15.70;38.70;;;;;;6127376;23;20445;-75
2022/04/09 00:35:52;;;;;;;0.93;0.20;;;15.60;37.70;;;;;;6152345;23;20444;-77
2022/04/09 00:38:19;;;;;;;0.30;0.10;;;15.50;36.80;;;;;;6126234;23;20449;-80
2022/04/09 00:40:46;;;;;;;1.20;0.20;;;15.60;36.50;;;;;;6102725;23;20409;-80
2022/04/09 00:43:13;;;;;;;0.70;0.13;;;15.70;36.50;;;;;;6152224;23;20378;-81
2022/04/09 00:45:40;;;;;;;0.93;0.10;;;15.70;36.60;;;;;;6128245;23;20847;-80
2022/04/09 00:48:10;;;;;;;0.82;0.10;;;15.80;36.20;;;;;;6152877;23;20416;-77
2022/04/09 00:50:37;;;;;;;1.75;0.20;;;15.80;36.30;;;;;;6128167;23;20901;-78
2022/04/09 00:53:09;;;;;;;1.20;0.10;;;15.90;36.10;;;;;;6127426;23;20385;-80
2022/04/09 00:58:23;;;;;;;0.60;0.10;;;16.00;35.60;;;;;;6154372;23;20385;-77
2022/04/09 01:00:50;;;;;;;1.13;0.10;;;16.00;35.30;;;;;;6131919;23;20413;-79
2022/04/09 01:03:18;;;;;;;1.38;0.20;;;16.00;35.70;;;;;;6128558;23;20390;-78
2022/04/09 01:05:48;;;;;;;0.90;0.17;;;15.90;36.10;;;;;;6127906;23;20704;-77
2022/04/09 01:08:15;;;;;;;0.80;0.10;;;15.90;36.10;;;;;;6125586;23;20388;-77
2022/04/09 01:10:51;;;;;;;1.77;0.20;;;16.00;35.80;;;;;;6127940;23;20404;-80
2022/04/09 01:13:19;;;;;;;1.00;0.10;;;15.90;36.40;;;;;;6125679;23;20382;-76
2022/04/09 01:15:46;;;;;;;2.53;0.20;;;15.90;35.90;;;;;;6126891;23;20384;-76
2022/04/09 01:18:15;;;;;;;1.17;0.10;;;15.90;36.50;;;;;;6127719;23;20517;-80
2022/04/09 01:20:42;;;;;;;0.60;0.10;;;15.70;36.60;;;;;;6128924;23;20370;-81
2022/04/09 01:23:09;;;;;;;1.70;0.20;;;15.60;36.70;;;;;;6134214;23;20448;-80
2022/04/09 01:25:37;;;;;;;2.20;0.20;;;15.70;36.30;;;;;;6132501;23;20386;-81
2022/04/09 01:28:05;;;;;;;2.72;0.10;;;15.70;36.50;;;;;;6157984;23;20381;-79
2022/04/09 01:30:32;;;;;;;0.65;0.10;;;15.50;36.60;;;;;;6131430;23;20929;-80
2022/04/09 01:32:58;;;;;;;1.23;0.10;;;15.50;36.70;;;;;;6129663;23;20929;-80
2022/04/09 01:35:25;;;;;;;1.67;0.17;;;15.50;36.30;;;;;;6128430;23;20716;-77
2022/04/09 01:37:52;;;;;;;1.30;0.10;;;15.60;36.10;;;;;;6152962;23;20370;-80
2022/04/09 01:40:19;;;;;;;0.70;0.10;;;15.50;36.20;;;;;;6126263;23;20441;-80
2022/04/09 01:42:46;;;;;;;0.25;0.10;;;15.50;37.40;;;;;;6128693;23;20370;-80
2022/04/09 01:45:13;;;;;;;0.93;0.20;;;15.60;35.80;;;;;;6129604;23;20374;-80
2022/04/09 01:47:43;;;;;;;0.55;0.10;;;15.50;36.10;;;;;;6153182;23;20897;-77
2022/04/09 01:50:11;;;;;;;0.70;0.10;;;15.30;37.00;;;;;;6154513;23;20377;-80
2022/04/09 01:52:38;;;;;;;1.15;0.50;;;15.40;35.90;;;;;;6126777;23;20381;-80
2022/04/09 01:55:06;;;;;;;0.90;0.10;;;15.40;36.10;;;;;;6130309;23;20924;-77
2022/04/09 01:57:33;;;;;;;1.02;0.15;;;15.30;36.40;;;;;;6127564;23;20432;-81
2022/04/09 02:00:00;;;;;;;1.70;0.20;;;15.30;36.30;;;;;;6127088;23;20374;-80
2022/04/09 02:02:27;;;;;;;0.95;0.15;;;15.20;36.30;;;;;;6129223;23;20441;-81
2022/04/09 02:04:54;;;;;;;1.40;0.20;;;15.20;36.40;;;;;;6156945;23;20830;-80
2022/04/09 02:07:22;;;;;;;0.60;0.10;;;15.30;35.80;;;;;;6132670;23;20436;-79
2022/04/09 02:09:50;;;;;;;1.70;0.20;;;15.60;35.00;;;;;;6127867;23;20378;-78
2022/04/09 02:12:17;;;;;;;1.25;0.20;;;15.50;35.50;;;;;;6127515;23;20382;-81
2022/04/09 02:14:44;;;;;;;0.73;0.10;;;15.40;35.80;;;;;;6127088;23;20850;-79
2022/04/09 02:17:11;;;;;;;1.10;0.10;;;15.20;36.20;;;;;;6134372;23;20377;-78
2022/04/09 02:19:38;;;;;;;1.42;0.13;;;15.10;36.70;;;;;;6131578;23;20381;-80
2022/04/09 02:22:06;;;;;;;1.08;0.10;;;15.10;36.20;;;;;;6130803;23;20386;-81
2022/04/09 02:24:33;;;;;;;1.33;0.20;;;15.10;36.40;;;;;;6126947;23;20382;-76
2022/04/09 02:27:00;;;;;;;0.90;0.10;;;15.20;36.00;;;;;;6153987;23;20397;-81
2022/04/09 02:29:27;;;;;;;0.50;0.10;;;15.10;36.40;;;;;;6131057;23;21035;-77
2022/04/09 02:31:54;;;;;;;0.57;0.10;;;15.10;36.30;;;;;;6135787;23;20386;-80
2022/04/09 02:34:22;;;;;;;1.13;0.10;;;15.00;36.30;;;;;;6129567;23;20388;-80
2022/04/09 02:36:49;;;;;;;3.47;0.15;;;15.10;36.20;;;;;;6128434;23;20366;-81
2022/04/09 02:39:21;;;;;;;1.38;0.10;;;15.00;36.00;;;;;;6127460;23;20382;-77
2022/04/09 02:41:50;;;;;;;1.98;0.15;;;15.00;35.70;;;;;;6130177;23;20374;-81
2022/04/09 02:44:18;;;;;;;1.00;0.20;;;14.90;36.00;;;;;;6129754;23;20378;-79
2022/04/09 02:46:47;;;;;;;0.50;0.20;;;14.90;35.60;;;;;;6131400;23;20447;-80
2022/04/09 02:49:15;;;;;;;0.55;0.10;;;14.80;35.60;;;;;;6157744;23;20378;-77
2022/04/09 02:51:42;;;;;;;0.73;0.20;;;14.80;35.40;;;;;;6126927;23;20401;-79
2022/04/09 02:54:15;;;;;;;0.90;0.15;;;14.80;35.20;;;;;;6130269;23;20378;-81
2022/04/09 02:56:45;;;;;;;0.43;0.10;;;14.80;35.10;;;;;;6155330;23;20370;-79
2022/04/09 02:59:13;;;;;;;1.00;0.10;;;14.80;35.00;;;;;;6132602;23;20751;-79
2022/04/09 03:01:41;;;;;;;2.53;0.20;;;14.80;35.00;;;;;;6130892;23;20382;-80
2022/04/09 03:04:08;;;;;;;1.67;0.25;;;14.80;34.80;;;;;;6128529;23;20738;-78
2022/04/09 03:06:35;;;;;;;1.10;0.13;;;14.90;34.30;;;;;;6133216;23;20426;-78
2022/04/09 03:09:03;;;;;;;1.17;0.40;;;14.90;34.30;;;;;;6135377;23;20380;-79
2022/04/09 03:11:29;;;;;;;2.90;0.20;;;14.90;34.30;;;;;;6127003;23;20850;-81
2022/04/09 03:13:56;;;;;;;1.27;0.20;;;14.90;34.00;;;;;;6134332;23;20375;-77
2022/04/09 03:16:23;;;;;;;1.20;0.20;;;15.00;33.90;;;;;;6137326;23;20450;-80
2022/04/09 03:18:50;;;;;;;2.28;0.20;;;15.00;34.00;;;;;;6128352;23;20451;-76
2022/04/09 03:21:17;;;;;;;0.60;0.10;;;15.00;33.90;;;;;;6133224;23;20378;-80
2022/04/09 03:23:44;;;;;;;1.13;0.20;;;15.00;33.30;;;;;;6128065;23;20847;-80
2022/04/09 03:26:11;;;;;;;0.80;0.10;;;15.00;33.40;;;;;;6152788;23;20374;-80
2022/04/09 03:28:39;;;;;;;3.38;0.20;;;15.10;33.30;;;;;;6127998;23;20378;-80
2022/04/09 03:31:09;;;;;;;1.70;0.20;;;15.00;33.10;;;;;;6126699;23;20381;-80
2022/04/09 03:33:36;;;;;;;1.83;0.13;;;14.90;33.80;;;;;;6127374;23;20861;-81
2022/04/09 03:36:03;;;;;;;1.40;0.40;;;14.90;33.40;;;;;;6128350;23;20429;-78
2022/04/09 03:38:30;;;;;;;1.10;0.10;;;14.90;33.60;;;;;;6130367;23;20871;-81
2022/04/09 03:40:57;;;;;;;3.33;0.20;;;14.80;33.60;;;;;;6130141;23;20436;-78
2022/04/09 03:43:24;;;;;;;0.45;0.10;;;14.90;32.80;;;;;;6129235;23;20385;-80
2022/04/09 03:45:50;;;;;;;2.10;0.30;;;14.90;33.10;;;;;;6153225;23;20433;-78
2022/04/09 03:48:17;;;;;;;1.60;0.40;;;14.70;33.50;;;;;;6130569;23;20370;-77
2022/04/09 03:50:44;;;;;;;0.90;0.20;;;14.80;33.20;;;;;;6128373;23;20378;-77
2022/04/09 03:53:11;;;;;;;0.32;0.10;;;14.80;33.50;;;;;;6128968;23;20371;-80
2022/04/09 03:55:38;;;;;;;2.20;0.20;;;14.70;33.10;;;;;;6154090;23;20424;-81
2022/04/09 03:58:05;;;;;;;1.40;0.20;;;14.70;33.10;;;;;;6128232;23;20842;-78
2022/04/09 04:00:32;;;;;;;0.95;0.30;;;14.80;33.10;;;;;;6126795;23;20425;-81
2022/04/09 04:02:59;;;;;;;0.25;0.08;;;14.80;32.80;;;;;;6127822;23;20393;-81
2022/04/09 04:05:26;;;;;;;0.30;0.03;;;14.80;32.60;;;;;;6126948;23;20384;-77
2022/04/09 04:07:53;;;;;;;0.38;0.10;;;14.90;32.30;;;;;;6156491;23;20362;-77
2022/04/09 04:10:20;;;;;;;0.50;0.10;;;14.80;32.40;;;;;;6133677;23;20474;-80
2022/04/09 04:12:47;;;;;;;1.55;0.20;;;14.80;32.60;;;;;;6132806;23;20452;-81
2022/04/09 04:15:15;;;;;;;0.70;0.20;;;14.80;32.30;;;;;;6129448;23;20414;-80
2022/04/09 04:17:43;;;;;;;0.80;0.13;;;14.70;32.80;;;;;;6128567;23;20917;-77
2022/04/09 04:20:11;;;;;;;2.35;0.10;;;14.70;33.20;;;;;;6127913;23;20896;-77
2022/04/09 04:22:38;;;;;;;1.23;0.15;;;14.50;32.80;;;;;;6152876;23;20386;-82
2022/04/09 04:25:06;;;;;;;1.80;0.10;;;14.50;32.70;;;;;;6131176;23;20385;-80
2022/04/09 04:27:33;;;;;;;0.13;0.10;;;14.70;31.90;;;;;;6126210;23;20382;-80
2022/04/09 04:30:01;;;;;;;1.40;0.10;;;14.80;31.50;;;;;;6128836;23;20378;-80
2022/04/09 04:32:28;;;;;;;1.23;0.10;;;14.90;31.70;;;;;;6129974;23;20378;-81
2022/04/09 04:34:55;;;;;;;0.40;0.10;;;15.00;31.30;;;;;;6127814;23;20373;-80
2022/04/09 04:37:22;;;;;;;0.50;0.13;;;14.90;31.60;;;;;;6144324;23;20847;-77
2022/04/09 04:39:49;;;;;;;1.70;0.10;;;14.90;30.90;;;;;;6128659;23;20382;-81
2022/04/09 04:42:16;;;;;;;1.10;0.10;;;15.00;30.60;;;;;;6138815;23;20413;-80
2022/04/09 04:44:47;;;;;;;1.08;0.10;;;14.90;31.00;;;;;;6134708;23;20434;-79
2022/04/09 04:47:14;;;;;;;3.15;0.10;;;14.90;31.10;;;;;;6135269;23;20361;-80
2022/04/09 04:49:41;;;;;;;0.47;0.00;;;15.00;30.80;;;;;;6128959;23;20881;-79
2022/04/09 04:52:08;;;;;;;3.17;0.30;;;14.90;30.50;;;;;;6128794;23;20374;-81
2022/04/09 04:54:36;;;;;;;0.90;0.05;;;15.00;30.30;;;;;;6136485;23;20386;-80
2022/04/09 04:57:03;;;;;;;0.08;0.00;;;15.10;30.30;;;;;;6132730;23;20437;-81
2022/04/09 04:59:30;;;;;;;0.00;0.00;;;14.90;30.50;;;;;;6154325;23;20433;-78
2022/04/09 05:01:57;;;;;;;1.90;0.30;;;14.80;31.10;;;;;;6135551;23;20374;-80
2022/04/09 05:04:27;;;;;;;3.80;0.10;;;14.80;30.60;;;;;;6132242;23;20427;-80
2022/04/09 05:06:54;;;;;;;0.50;0.08;;;14.80;31.50;;;;;;6126335;23;20382;-77
2022/04/09 05:09:21;;;;;;;1.60;0.00;;;14.90;30.00;;;;;;6156469;23;20394;-80
2022/04/09 05:11:48;;;;;;;2.10;0.00;;;14.90;30.00;;;;;;6126749;23;20370;-77
2022/04/09 05:14:15;;;;;;;0.70;0.00;;;15.10;29.70;;;;;;6128093;23;20417;-77
2022/04/09 05:16:42;;;;;;;0.50;0.10;;;15.00;30.00;;;;;;6156711;23;20369;-79
2022/04/09 05:19:09;;;;;;;1.20;0.10;;;14.90;30.00;;;;;;6129598;23;20476;-79
2022/04/09 05:21:36;;;;;;;8.50;0.25;;;14.80;30.30;;;;;;6128681;23;20386;-80
2022/04/09 05:24:03;;;;;;;2.90;0.00;;;14.80;30.10;;;;;;6128101;23;20366;-80
2022/04/09 05:26:30;;;;;;;0.38;0.00;;;14.80;30.10;;;;;;6128191;23;20719;-79
2022/04/09 05:28:57;;;;;;;0.30;0.00;;;14.70;30.70;;;;;;6131193;23;20389;-78
2022/04/09 05:31:27;;;;;;;0.10;0.00;;;14.80;30.60;;;;;;6130983;23;21093;-76
2022/04/09 05:33:57;;;;;;;4.60;0.10;;;14.70;30.40;;;;;;6156074;23;20398;-80
2022/04/09 05:36:24;;;;;;;0.30;0.00;;;14.70;30.30;;;;;;6127744;23;20377;-81
2022/04/09 05:38:51;;;;;;;1.52;0.00;;;14.50;30.90;;;;;;6136009;23;20382;-81
2022/04/09 05:41:18;;;;;;;0.38;0.10;;;14.40;30.50;;;;;;6134054;23;20409;-80
2022/04/09 05:43:44;;;;;;;0.98;0.00;;;14.50;29.90;;;;;;6132856;23;20409;-80
2022/04/09 05:46:11;;;;;;;0.20;0.10;;;14.50;30.20;;;;;;6130712;23;20374;-81
2022/04/09 05:48:38;;;;;;;1.25;0.00;;;14.50;29.20;;;;;;6131937;23;20378;-81
2022/04/09 05:51:05;;;;;;;1.30;0.10;;;14.30;29.70;;;;;;6131323;23;20374;-78
2022/04/09 05:53:32;;;;;;;0.60;0.10;;;14.30;29.40;;;;;;6158959;23;20435;-81
2022/04/09 05:55:59;;;;;;;1.73;0.05;;;14.40;28.90;;;;;;6135255;23;20369;-79
2022/04/09 05:58:26;;;;;;;0.15;0.00;;;14.40;27.80;;;;;;6130150;23;20373;-77
2022/04/09 06:00:53;;;;;;;0.13;0.00;;;14.50;28.50;;;;;;6127448;23;20401;-79
2022/04/09 06:03:22;;;;;;;2.70;0.30;;;14.40;28.30;;;;;;6153737;23;20520;-78
2022/04/09 06:05:49;;;;;;;1.85;0.17;;;14.60;27.50;;;;;;6152178;23;20389;-78
2022/04/09 06:08:16;;;;;;;2.30;0.20;;;14.50;27.60;;;;;;6130519;23;20382;-81
2022/04/09 06:10:43;;;;;;;1.40;0.15;;;14.60;26.70;;;;;;6126261;23;20378;-80
2022/04/09 06:13:13;;;;;;;0.20;0.10;;;14.70;26.40;;;;;;6129731;23;20441;-77
2022/04/09 06:15:41;;;;;;;3.50;0.22;;;14.70;26.40;;;;;;6127115;23;20444;-78
2022/04/09 06:18:10;;;;;;;1.00;0.10;;;14.70;26.10;;;;;;6127327;23;20920;-80
2022/04/09 06:20:37;;;;;;;0.40;0.05;;;14.80;25.90;;;;;;6126256;23;20378;-82
2022/04/09 06:23:04;;;;;;;0.75;0.00;;;14.70;26.30;;;;;;6127872;23;20861;-80
2022/04/09 06:25:31;;;;;;;1.50;0.10;;;14.80;25.90;;;;;;6126931;23;20384;-77
2022/04/09 06:27:58;;;;;;;2.47;0.40;;;14.80;26.10;;;;;;6127374;23;20440;-80
2022/04/09 06:30:28;;;;;;;2.90;0.15;;;14.70;25.50;;;;;;6127845;23;20389;-79
2022/04/09 06:32:55;;;;;;;0.90;0.10;;;14.80;25.70;;;;;;6129199;23;20448;-80
2022/04/09 06:35:24;;;;;;;1.80;0.10;;;14.80;25.70;;;;;;6128024;23;20392;-81
2022/04/09 06:37:51;;;;;;;0.70;0.10;;;14.90;25.80;;;;;;6133030;23;20425;-81
2022/04/09 06:40:18;;;;;;;0.25;0.10;;;14.90;25.50;;;;;;6134423;23;20377;-80
2022/04/09 06:42:45;;;;;;;0.88;0.10;;;14.90;25.70;;;;;;6129678;23;20378;-77
2022/04/09 06:45:14;;;;;;;1.00;0.10;;;14.90;25.70;;;;;;6128040;23;20429;-81
2022/04/09 06:47:43;;;;;;;0.98;0.00;;;15.00;25.50;;;;;;6129618;23;20405;-77
2022/04/09 06:50:12;;;;;;;0.13;0.00;;;14.90;25.40;;;;;;6129193;23;20803;-80
2022/04/09 06:52:39;;;;;;;0.35;0.00;;;15.00;25.40;;;;;;6128872;23;20867;-77
2022/04/09 06:55:09;;;;;;;2.63;0.10;;;15.00;25.40;;;;;;6127577;23;20432;-77
2022/04/09 06:57:41;;;;;;;2.10;0.10;;;15.10;24.50;;;;;;6129843;23;20453;-77
2022/04/09 07:00:13;;;;;;;2.15;0.10;;;15.10;25.20;;;;;;6127289;23;20468;-80
2022/04/09 07:02:41;;;;;;;1.52;0.10;;;15.20;24.60;;;;;;6130780;23;20386;-80
2022/04/09 07:05:08;;;;;;;2.65;0.10;;;15.40;23.70;;;;;;6133544;23;20397;-79
2022/04/09 07:07:35;;;;;;;0.20;0.10;;;15.40;25.20;;;;;;6130966;23;20386;-77
2022/04/09 07:10:09;;;;;;;1.50;0.10;;;15.50;24.40;;;;;;6128811;23;20389;-81
2022/04/09 07:12:38;;;;;;;3.15;0.30;;;15.40;24.30;;;;;;6132625;23;20378;-80
2022/04/09 07:15:07;;;;;;;0.80;0.00;;;15.50;24.20;;;;;;6139410;23;20413;-80
2022/04/09 07:17:34;;;;;;;0.70;0.10;;;15.70;23.40;;;;;;6130770;23;20386;-80
2022/04/09 07:20:04;;;;;;;0.70;0.10;;;15.70;24.30;;;;;;6156178;23;20440;-80
2022/04/09 07:22:33;;;;;;;4.50;0.10;;;15.70;23.60;;;;;;6154323;23;20430;-80
2022/04/09 07:25:00;;;;;;;0.50;0.00;;;15.80;23.00;;;;;;6128764;23;20711;-79
2022/04/09 07:27:38;;;;;;;1.35;0.10;;;15.80;24.20;;;;;;6128048;23;20444;-78
2022/04/09 07:30:07;;;;;;;3.85;0.10;;;15.90;23.10;;;;;;6127380;23;20370;-80
2022/04/09 07:32:35;;;;;;;0.60;0.10;;;16.00;23.00;;;;;;6157786;23;20711;-80
2022/04/09 07:35:03;;;;;;;0.10;0.00;;;16.00;23.80;;;;;;6128191;23;20382;-80
2022/04/09 07:37:30;;;;;;;0.80;0.10;;;16.00;23.40;;;;;;6131353;23;20445;-80
2022/04/09 07:39:57;;;;;;;0.30;0.00;;;16.20;23.30;;;;;;6128868;23;20374;-79
2022/04/09 07:42:24;;;;;;;1.52;0.00;;;16.20;23.10;;;;;;6155278;23;20433;-78
2022/04/09 07:44:52;;;;;;;0.80;0.10;;;16.30;22.40;;;;;;6128094;23;20374;-80
2022/04/09 07:47:19;;;;;;;0.90;0.10;;;16.30;22.60;;;;;;6129236;23;20370;-80
2022/04/09 07:49:47;;;;;;;3.13;0.17;;;16.40;22.20;;;;;;6128672;23;20445;-80
2022/04/09 07:52:14;;;;;;;0.80;0.00;;;16.50;23.00;;;;;;6153833;23;20366;-80
2022/04/09 07:54:41;;;;;;;0.40;0.00;;;16.50;23.00;;;;;;6126578;23;20598;-82
2022/04/09 07:57:08;;;;;;;1.27;0.10;;;16.60;21.90;;;;;;6127815;23;20397;-83
2022/04/09 07:59:35;;;;;;;0.30;0.00;;;16.60;23.00;;;;;;6133375;23;20390;-81
2022/04/09 08:02:02;;;;;;;1.20;0.10;;;16.70;22.30;;;;;;6129122;23;20378;-79
2022/04/09 08:04:29;;;;;;;0.60;0.00;;;16.80;21.90;;;;;;6130231;23;20759;-82
2022/04/09 08:06:56;;;;;;;1.00;0.00;;;16.90;22.30;;;;;;6128711;23;20373;-82
2022/04/09 08:09:24;;;;;;;1.40;0.00;;;17.00;23.30;;;;;;6154010;23;20394;-83
2022/04/09 08:11:53;;;;;;;0.25;0.00;;;17.10;21.70;;;;;;6131387;23;20381;-83
2022/04/09 08:14:20;;;;;;;0.45;0.00;;;17.10;22.00;;;;;;6132445;23;20397;-82
2022/04/09 08:16:47;;;;;;;0.50;0.00;;;17.10;21.40;;;;;;6132123;23;20378;-83
2022/04/09 08:19:14;;;;;;;0.05;0.00;;;17.20;21.40;;;;;;6129237;23;20433;-80
2022/04/09 08:21:41;;;;;;;0.60;0.00;;;17.30;21.40;;;;;;6131318;23;20853;-80
2022/04/09 08:24:09;;;;;;;0.50;0.00;;;17.30;22.20;;;;;;6131056;23;20537;-80
2022/04/09 08:26:36;;;;;;;1.13;0.10;;;17.20;21.80;;;;;;6129983;23;20381;-81
2022/04/09 08:29:04;;;;;;;1.70;0.30;;;17.20;22.30;;;;;;6155702;23;20378;-82
2022/04/09 08:31:31;;;;;;;0.20;0.00;;;17.40;21.90;;;;;;6155216;23;20374;-78
2022/04/09 08:33:58;;;;;;;1.05;0.10;;;17.40;21.40;;;;;;6130572;23;20378;-79
2022/04/09 08:36:25;;;;;;;0.95;0.00;;;17.40;22.90;;;;;;6156967;23;20381;-80
2022/04/09 08:38:52;;;;;;;0.47;0.00;;;17.50;21.20;;;;;;6156274;23;20382;-82
2022/04/09 08:41:20;;;;;;;0.30;0.00;;;17.50;21.30;;;;;;6126222;23;20378;-78
2022/04/09 08:43:47;;;;;;;2.42;0.20;;;17.60;22.50;;;;;;6130175;23;20399;-78
2022/04/09 08:46:14;;;;;;;0.80;0.00;;;17.60;21.30;;;;;;6128267;23;20793;-79
2022/04/09 08:48:45;;;;;;;2.20;0.20;;;17.50;21.40;;;;;;6126846;23;20437;-80
2022/04/09 08:51:12;;;;;;;0.77;0.00;;;17.60;21.80;;;;;;6134415;23;20413;-82
2022/04/09 08:54:00;;;;;;;0.32;0.00;;;17.70;21.30;;;;;;6131300;23;20755;-78
2022/04/09 08:56:34;;;;;;;1.20;0.00;;;17.70;21.70;;;;;;6131398;23;20374;-81
2022/04/09 08:59:02;;;;;;;0.28;0.00;;;17.60;22.10;;;;;;6153492;23;20437;-78
2022/04/09 09:01:31;;;;;;;0.50;0.00;;;17.60;22.40;;;;;;6126967;23;20831;-80
2022/04/09 09:03:59;;;;;;;1.15;0.00;;;17.70;21.00;;;;;;6130639;23;20754;-82
2022/04/09 09:06:30;;;;;;;1.75;0.00;;;17.50;21.40;;;;;;6132401;23;20429;-78
2022/04/09 09:09:02;;;;;;;1.20;0.10;;;17.50;20.90;;;;;;6129978;23;20974;-78
2022/04/09 09:11:43;;;;;;;0.90;0.08;;;17.50;22.00;;;;;;6137194;23;20382;-79
2022/04/09 09:14:10;;;;;;;1.15;0.00;;;17.60;21.90;;;;;;6127143;23;20447;-79
2022/04/09 09:16:37;;;;;;;0.55;0.00;;;17.60;21.40;;;;;;6130518;23;20402;-82
2022/04/09 09:19:05;;;;;;;0.30;0.10;;;17.70;21.50;;;;;;6133920;23;20384;-80
2022/04/09 09:21:33;;;;;;;0.13;0.00;;;17.80;22.20;;;;;;6102755;23;20455;-81
2022/04/09 09:24:13;;;;;;;1.20;0.10;;;17.80;21.00;;;;;;6134392;23;20382;-79
2022/04/09 09:26:40;;;;;;;0.00;0.00;;;17.80;20.90;;;;;;6128814;23;20452;-78
2022/04/09 09:29:08;;;;;;;0.60;0.10;;;17.80;21.40;;;;;;6130450;23;20432;-83
2022/04/09 09:31:42;;;;;;;0.60;0.00;;;17.90;21.00;;;;;;6126795;23;20382;-81
2022/04/09 09:34:14;;;;;;;0.70;0.00;;;17.90;20.90;;;;;;6132066;23;21031;-80
2022/04/09 09:36:43;;;;;;;0.70;0.00;;;17.90;22.10;;;;;;6136416;23;20392;-81
2022/04/09 09:39:13;;;;;;;0.40;0.00;;;17.90;20.50;;;;;;6130372;23;20481;-80
2022/04/09 09:41:51;;;;;;;0.20;0.03;;;17.90;21.70;;;;;;6132091;23;20381;-79
2022/04/09 09:44:22;;;;;;;0.08;0.00;;;17.90;20.60;;;;;;6129021;23;20377;-80
2022/04/09 09:46:51;;;;;;;0.70;0.00;;;17.90;21.20;;;;;;6156798;23;20366;-78
2022/04/09 09:49:20;;;;;;;0.28;0.10;;;17.90;21.50;;;;;;6132389;23;20381;-80
2022/04/09 09:52:08;;;;;;;0.10;0.00;;;18.10;20.80;;;;;;6131200;23;20372;-80
2022/04/09 09:55:00;;;;;;;2.55;0.05;;;18.00;20.60;;;;;;6133567;23;20419;-79
2022/04/09 09:57:29;;;;;;;0.45;0.00;;;18.00;21.00;;;;;;6128872;23;20444;-80
2022/04/09 09:59:59;;;;;;;0.00;0.00;;;18.00;20.00;;;;;;6139595;23;20373;-78
2022/04/09 10:02:30;;;;;;;0.50;0.00;;;17.90;20.10;;;;;;6154881;23;20440;-81
2022/04/09 10:04:57;;;;;;;0.50;0.00;;;17.90;20.40;;;;;;6130429;23;20401;-81
2022/04/09 10:07:25;;;;;;;;;;;18.00;20.60;;;;;;6128970;23;20018;-79
2022/04/09 10:09:53;;;;;;;;;;;17.80;20.10;;;;;;6157408;23;19923;-82
2022/04/09 10:12:21;;;;;;;;;;;17.60;20.60;;;;;;6132490;23;19920;-78
2022/04/09 10:14:49;;;;;;;;;;;17.80;20.10;;;;;;6129287;23;19917;-79
2022/04/09 10:17:19;;;;;;;;;;;17.60;20.20;;;;;;6156380;23;19920;-82
2022/04/09 10:19:54;;;;;;;;;;;17.60;20.70;;;;;;6128487;23;19916;-78
2022/04/09 10:22:22;;;;;;;;;;;17.60;20.50;;;;;;6135154;23;19920;-82
2022/04/09 10:24:50;;;;;;;;;;;17.50;20.10;;;;;;6130735;23;19995;-81
2022/04/09 10:27:38;;;;;;;;;;;17.30;20.10;;;;;;6156026;23;20389;-78
2022/04/09 10:30:11;;;;;;;;;;;17.10;20.10;;;;;;6132377;23;19924;-81
2022/04/09 10:32:46;;;;;;;;;;;17.00;20.00;;;;;;6130936;23;20257;-79
2022/04/09 10:35:29;;;;;;;;;;;17.00;20.00;;;;;;6128968;23;20693;-80
2022/04/09 10:38:17;;;;;;;;;;;17.00;19.90;;;;;;6131720;23;20334;-79
2022/04/09 10:40:50;;;;;;;;;;;16.90;19.30;;;;;;6132420;23;19987;-83
2022/04/09 10:43:23;;;;;;;;;;;17.00;20.30;;;;;;6133553;23;19991;-82
2022/04/09 10:46:02;;;;;;;;;;;17.10;19.40;;;;;;6134434;23;19920;-82
2022/04/09 10:48:30;;;;;;;;;;;17.10;20.70;;;;;;6130439;23;20435;-82
2022/04/09 10:50:58;;;;;;;;;;;17.30;20.30;;;;;;6132725;23;19917;-77
2022/04/09 10:53:27;;;;;;;;;;;17.30;20.50;;;;;;6129681;23;20231;-82
2022/04/09 10:56:12;;;;;;;;;;;17.30;19.40;;;;;;6131349;23;19921;-78
2022/04/09 10:58:58;;;;;;;;;;;17.50;19.90;;;;;;6139130;23;19931;-82
2022/04/09 11:01:43;;;;;;;;;;;17.50;19.90;;;;;;6132276;23;19920;-79
2022/04/09 11:04:25;;;;;;;;;;;17.50;18.80;;;;;;6136098;23;19923;-78
2022/04/09 11:07:04;;;;;;;;;;;17.50;18.80;;;;;;6139332;23;19980;-78
2022/04/09 11:09:50;;;;;;;;;;;17.60;19.40;;;;;;6130076;23;19916;-78
2022/04/09 11:12:21;;;;;;;;;;;17.80;19.50;;;;;;6157600;23;19917;-78
2022/04/09 11:15:01;;;;;;;;;;;17.80;18.70;;;;;;6161334;23;19916;-82
2022/04/09 11:17:29;;;;;;;;;;;17.60;18.60;;;;;;6159702;23;19916;-80
2022/04/09 11:19:59;;;;;;;;;;;17.60;19.00;;;;;;6133916;23;19920;-80
2022/04/09 11:22:33;;;;;;;;;;;17.60;20.10;;;;;;6132303;23;19921;-80
2022/04/09 11:25:00;;;;;;;;;;;17.60;19.30;;;;;;6158170;23;20002;-81
2022/04/09 11:27:27;;;;;;;;;;;17.60;19.50;;;;;;6130623;23;19917;-81
2022/04/09 11:29:55;;;;;;;;;;;17.40;18.90;;;;;;6130232;23;19931;-83
2022/04/09 11:32:22;;;;;;;;;;;17.40;19.50;;;;;;6132038;23;20286;-81
2022/04/09 11:34:50;;;;;;;;;;;17.30;19.20;;;;;;6129866;23;19940;-79
2022/04/09 11:37:18;;;;;;;;;;;17.30;19.70;;;;;;6132465;23;19924;-81
2022/04/09 11:39:46;;;;;;;;;;;17.20;19.60;;;;;;6130916;23;19920;-77
2022/04/09 11:42:13;;;;;;;;;;;17.20;19.00;;;;;;6133182;23;20356;-78
2022/04/09 11:44:40;;;;;;;;;;;17.30;19.30;;;;;;6131830;23;19952;-78
2022/04/09 11:47:08;;;;;;;;;;;17.30;19.60;;;;;;6130269;23;19967;-81
2022/04/09 11:49:35;;;;;;;;;;;17.30;18.90;;;;;;6133169;23;19924;-81
2022/04/09 11:52:03;;;;;;;;;;;17.20;19.80;;;;;;6131681;23;19916;-78
2022/04/09 11:54:34;;;;;;;;;;;17.20;19.30;;;;;;6131401;23;19920;-81
2022/04/09 11:57:01;;;;;;;;;;;17.30;19.40;;;;;;6131804;23;19916;-82
2022/04/09 11:59:31;;;;;;;;;;;17.30;19.40;;;;;;6131936;23;19920;-82
2022/04/09 12:01:58;;;;;;;;;;;17.20;19.30;;;;;;6133386;23;19947;-78
2022/04/09 12:04:32;;;;;;;;;;;17.00;19.30;;;;;;6132297;23;19940;-78
2022/04/09 12:07:04;;;;;;;;;;;17.00;19.30;;;;;;6159480;23;19971;-82
2022/04/09 12:09:31;;;;;;;;;;;17.00;19.00;;;;;;6133666;23;19925;-78
2022/04/09 12:12:01;;;;;;;;;;;17.30;20.10;;;;;;6133053;23;19971;-78
2022/04/09 12:14:28;;;;;;;;;;;17.30;20.00;;;;;;6131953;23;19917;-81
2022/04/09 12:16:56;;;;;;;;;;;17.40;19.30;;;;;;6131932;23;19920;-81
2022/04/09 12:19:29;;;;;;;;;;;17.50;19.40;;;;;;6132526;23;19923;-81
2022/04/09 12:22:31;;;;;;;;;;;17.60;18.80;;;;;;6132590;23;19924;-78
2022/04/09 12:24:58;;;;;;;;;;;17.50;19.70;;;;;;6080968;23;20384;-81
2022/04/09 12:27:46;;;;;;;;;;;17.50;18.60;;;;;;6159641;23;19917;-78
2022/04/09 12:30:14;;;;;;;;;;;17.30;19.50;;;;;;6130278;23;20060;-78
2022/04/09 12:32:41;;;;;;;;;;;17.20;19.30;;;;;;6131501;23;19916;-78
2022/04/09 12:35:10;;;;;;;;;;;17.00;19.40;;;;;;6129164;23;19923;-80
2022/04/09 12:37:44;;;;;;;;;;;17.00;20.50;;;;;;6132031;23;19920;-82
2022/04/09 12:40:11;;;;;;;;;;;17.00;20.50;;;;;;6132782;23;20229;-82
2022/04/09 12:42:38;;;;;;;;;;;17.00;21.30;;;;;;6134167;23;19917;-78
2022/04/09 12:45:23;;;;;;;;;;;17.00;20.00;;;;;;6130426;23;19920;-79
2022/04/09 12:47:58;;;;;;;;;;;17.00;20.80;;;;;;6130086;23;20396;-79
2022/04/09 12:50:27;;;;;;;;;;;17.20;21.10;;;;;;6157691;23;19928;-78
2022/04/09 12:52:55;;;;;;;;;;;17.10;20.30;;;;;;6136775;23;19916;-78
2022/04/09 12:55:22;;;;;;;;;;;17.30;20.40;;;;;;6161950;23;19921;-78
2022/04/09 12:57:50;;;;;;;;;;;17.50;20.80;;;;;;6131530;23;20356;-80
2022/04/09 13:00:17;;;;;;;;;;;17.40;20.00;;;;;;6129591;23;19991;-81
2022/04/09 13:02:47;;;;;;;;;;;17.50;20.10;;;;;;6135746;23;19917;-80
2022/04/09 13:05:15;;;;;;;;;;;17.50;19.40;;;;;;6129117;23;19920;-80
2022/04/09 13:07:44;;;;;;;;;;;17.60;20.30;;;;;;6156444;23;20142;-80
2022/04/09 13:10:12;;;;;;;;;;;17.60;19.20;;;;;;6093478;23;19916;-79
2022/04/09 13:12:40;;;;;;;;;;;17.50;18.90;;;;;;6134572;23;19917;-78
2022/04/09 13:15:07;;;;;;;;;;;17.50;20.10;;;;;;6130330;23;19920;-82
2022/04/09 13:17:35;;;;;;;;;;;17.60;19.00;;;;;;6134481;23;19927;-82
2022/04/09 13:20:04;;;;;;;;;;;17.50;19.40;;;;;;6129675;23;19920;-79